»·PEaware :: SWA310 KPHX-KSLC

SWA310 :: KPHX-KSLC

FLIGHT INFORMATION

Flight Status: Arrived
Operator:
Southwest Airlines
More flights by this operator :: More flights under this callsign
Pilot: Maximilliano F. (23467)
Aircraft: BOEING 737-800
(B738)
More flights by this aircraft type
Origin: KPHX Phoenix Sky Harbor Intl
United States
Destination: KSLC Salt Lake City Intl
United States
More flights between these airports :: More routes between these airports
Route: QUAKY1 GCN BCE QWENN5
File this flight plan on PilotEdge
Remarks: RMK / SIMBRIEF
Altitude:
(Current/Filed)
36,000ft
Speed:
(Current/Filed)
459kts
Departed: 10-Oct-19 04:15 PM
Arrived: 10-Oct-19 05:28 PM
Distance/Time
Traveled:
441nm/1:13
Distance/Time
To Go:
Arrived

Flight Plot

Page will automatically refresh every two minutes.

Flight plan parsing failed; only flown route is shown


Map Options




Map Legend


Flown Route
Filed Route
Departure Airport
Arrival Airport
Navaid (VOR, NDB)
Fix

Horizontal Profiles

Position Reports

Time Latitude Longitude Heading Altitude Ground
Speed
10-Oct-19 15:46 33.434042 -111.998740 285 1139ft 0kts
10-Oct-19 15:47 33.434042 -111.998740 285 1139ft 0kts
10-Oct-19 15:48 33.434042 -111.998740 285 1139ft 0kts
10-Oct-19 15:49 33.434042 -111.998740 285 1139ft 0kts
10-Oct-19 15:50 33.434042 -111.998740 285 1139ft 0kts
10-Oct-19 15:51 33.434042 -111.998740 285 1139ft 0kts
10-Oct-19 15:52 33.434042 -111.998740 285 1139ft 0kts
10-Oct-19 15:53 33.434042 -111.998740 285 1139ft 0kts
10-Oct-19 15:54 33.434042 -111.998740 285 1139ft 0kts
10-Oct-19 15:55 33.434042 -111.998740 285 1139ft 0kts
10-Oct-19 15:56 33.434042 -111.998740 285 1139ft 0kts
10-Oct-19 15:57 33.434042 -111.998740 285 1139ft 0kts
10-Oct-19 15:58 33.434042 -111.998740 285 1139ft 0kts
10-Oct-19 15:59 33.434042 -111.998740 285 1139ft 0kts
10-Oct-19 16:00 33.434042 -111.998740 285 1139ft 0kts
10-Oct-19 16:01 33.434042 -111.998739 285 1139ft 0kts
10-Oct-19 16:03 33.433795 -111.998476 319 1139ft 2kts
10-Oct-19 16:04 33.433638 -111.998162 238 1139ft 1kts
10-Oct-19 16:05 33.433652 -111.998134 240 1139ft 0kts
10-Oct-19 16:06 33.433652 -111.998134 240 1139ft 0kts
10-Oct-19 16:07 33.433652 -111.998134 240 1139ft 0kts
10-Oct-19 16:08 33.433485 -111.998227 190 1139ft 0kts
10-Oct-19 16:09 33.432795 -111.997159 89 1138ft 5kts
10-Oct-19 16:10 33.432814 -111.993997 91 1139ft 12kts
10-Oct-19 16:11 33.432120 -111.993470 181 1139ft 0kts
10-Oct-19 16:12 33.432120 -111.993470 181 1139ft 0kts
10-Oct-19 16:13 33.432120 -111.993470 181 1139ft 0kts
10-Oct-19 16:14 33.431033 -111.993959 268 1139ft 7kts
10-Oct-19 16:15 33.430827 -112.029979 269 1751ft 187kts
10-Oct-19 16:16 33.433507 -112.099624 273 4015ft 249kts
10-Oct-19 16:17 33.443862 -112.181712 316 7570ft 263kts
10-Oct-19 16:18 33.515067 -112.196499 359 11101ft 270kts
10-Oct-19 16:18 33.582392 -112.180562 14 12678ft 331kts
10-Oct-19 16:20 33.672993 -112.098181 42 16362ft 370kts
10-Oct-19 16:21 33.751663 -112.014732 22 19338ft 380kts
10-Oct-19 16:22 33.853059 -111.980617 2 20854ft 376kts
10-Oct-19 16:22 33.939385 -111.964410 2 21656ft 379kts
10-Oct-19 16:23 34.045691 -111.944248 1 24336ft 396kts
10-Oct-19 16:25 34.148882 -111.941808 347 26576ft 400kts
10-Oct-19 16:26 34.261842 -111.954437 347 28840ft 416kts
10-Oct-19 16:26 34.359151 -111.965180 346 30624ft 428kts
10-Oct-19 16:27 34.477274 -111.978210 345 33202ft 425kts
10-Oct-19 16:28 34.593343 -111.991029 345 35503ft 417kts
10-Oct-19 16:29 34.710803 -112.004113 345 36093ft 430kts
10-Oct-19 16:30 34.829105 -112.017304 345 36139ft 427kts
10-Oct-19 16:31 34.947114 -112.030599 346 36171ft 426kts
10-Oct-19 16:32 35.064822 -112.043882 346 36170ft 426kts
10-Oct-19 16:33 35.169042 -112.055682 346 36172ft 425kts
10-Oct-19 16:34 35.286365 -112.069013 346 36172ft 425kts
10-Oct-19 16:35 35.403641 -112.081917 347 36176ft 425kts
10-Oct-19 16:36 35.521876 -112.093606 347 36202ft 438kts
10-Oct-19 16:37 35.646104 -112.108229 347 36186ft 451kts
10-Oct-19 16:38 35.770655 -112.123166 347 36189ft 450kts
10-Oct-19 16:39 35.894857 -112.138110 347 36193ft 450kts
10-Oct-19 16:40 36.019821 -112.151595 348 36206ft 452kts
10-Oct-19 16:41 36.141235 -112.162205 348 36209ft 451kts
10-Oct-19 16:42 36.266403 -112.173450 348 36208ft 451kts
10-Oct-19 16:43 36.391186 -112.184691 348 36208ft 451kts
10-Oct-19 16:44 36.515914 -112.195956 348 36212ft 450kts
10-Oct-19 16:45 36.640418 -112.207243 348 36247ft 449kts
10-Oct-19 16:46 36.764940 -112.218568 348 36253ft 448kts
10-Oct-19 16:47 36.888382 -112.229832 348 36251ft 445kts
10-Oct-19 16:48 37.011483 -112.241101 348 36250ft 444kts
10-Oct-19 16:49 37.131060 -112.252080 348 36254ft 442kts
10-Oct-19 16:50 37.253186 -112.263327 348 36260ft 439kts
10-Oct-19 16:51 37.374425 -112.274536 348 36262ft 438kts
10-Oct-19 16:52 37.495533 -112.285764 348 36261ft 437kts
10-Oct-19 16:53 37.616206 -112.296987 348 36261ft 435kts
10-Oct-19 16:54 37.737367 -112.297918 358 36261ft 445kts
10-Oct-19 16:55 37.860044 -112.280477 358 36278ft 444kts
10-Oct-19 16:56 37.982830 -112.263626 358 36294ft 443kts
10-Oct-19 16:57 38.103728 -112.246966 358 36294ft 443kts
10-Oct-19 16:58 38.226374 -112.229997 358 36301ft 441kts
10-Oct-19 16:59 38.348205 -112.213095 358 36321ft 442kts
10-Oct-19 17:00 38.469625 -112.196187 358 36336ft 440kts
10-Oct-19 17:01 38.591265 -112.179193 358 36335ft 439kts
10-Oct-19 17:02 38.712152 -112.162248 358 36334ft 438kts
10-Oct-19 17:03 38.831518 -112.145493 358 36320ft 415kts
10-Oct-19 17:04 38.943401 -112.130146 357 36344ft 406kts
10-Oct-19 17:05 39.055311 -112.114593 357 36357ft 402kts
10-Oct-19 17:06 39.159131 -112.100148 357 36286ft 399kts
10-Oct-19 17:07 39.268200 -112.084902 357 33436ft 393kts
10-Oct-19 17:08 39.376088 -112.069626 358 30067ft 391kts
10-Oct-19 17:09 39.483232 -112.054445 0 26343ft 387kts
10-Oct-19 17:10 39.586028 -112.039783 1 23579ft 355kts
10-Oct-19 17:11 39.678868 -112.026556 1 21390ft 319kts
10-Oct-19 17:12 39.764884 -112.014314 2 19457ft 312kts
10-Oct-19 17:13 39.851075 -112.001930 3 17095ft 303kts
10-Oct-19 17:14 39.935404 -111.989863 3 15161ft 319kts
10-Oct-19 17:15 40.022730 -111.977729 3 14961ft 315kts
10-Oct-19 17:16 40.109672 -111.965721 3 14516ft 311kts
10-Oct-19 17:17 40.197581 -111.953582 4 12406ft 325kts
10-Oct-19 17:18 40.287438 -111.939214 4 10996ft 311kts
10-Oct-19 17:19 40.364336 -111.930858 3 11003ft 263kts
10-Oct-19 17:20 40.437877 -111.934083 353 10344ft 268kts
10-Oct-19 17:21 40.511501 -111.942762 354 9038ft 263kts
10-Oct-19 17:22 40.578631 -111.950483 354 8160ft 231kts
10-Oct-19 17:23 40.639955 -111.957561 354 6946ft 211kts
10-Oct-19 17:24 40.691206 -111.963481 354 5917ft 167kts
10-Oct-19 17:25 40.734857 -111.968532 352 5055ft 158kts
10-Oct-19 17:26 40.777913 -111.973552 355 4235ft 138kts
10-Oct-19 17:27 40.788262 -111.976280 324 4235ft 8kts
10-Oct-19 17:28 40.789708 -111.978519 265 4235ft 8kts
10-Oct-19 17:29 40.788360 -111.979830 177 4235ft 7kts
10-Oct-19 17:30 40.787209 -111.979862 164 4235ft 1kts

Navigation Log

Ident Type
Flight plan parsing failed, navigation log unavailable